<?xml version="1.0" encoding="utf-8"?>
<gpx xmlns:xsi="http://www.w3.org/2001/XMLSchema-instance" xmlns:xsd="http://www.w3.org/2001/XMLSchema" version="1.1" creator="Shapelink.com" xmlns="http://www.topografix.com/GPX/1/1" xmlns:gpxtpx="http://www.garmin.com/xmlschemas/TrackPointExtension/v1">
  <metadata>
    <name>Övrigt 2.16 km, 2020-06-13</name>
    <desc></desc>
    <author><name>Marian Moron</name></author> 
    <time>2020-06-13T19:45:38Z</time>
  </metadata>
  <trk>
    <name>Övrigt 2.16 km, 2020-06-13</name>
    <trkseg>
      <trkpt lat="51.229817658897" lon="4.458058270413">
        <ele>2.2</ele>
        <time>2020-06-13T19:45:38Z</time>
      </trkpt>
      <trkpt lat="51.229818077992" lon="4.458045362287">
        <ele>0.6</ele>
        <time>2020-06-13T19:45:44Z</time>
      </trkpt>
      <trkpt lat="51.229813551766" lon="4.457920471977">
        <ele>3</ele>
        <time>2020-06-13T19:45:58Z</time>
      </trkpt>
      <trkpt lat="51.229719255391" lon="4.457216057101">
        <ele>0</ele>
        <time>2020-06-13T19:46:33Z</time>
      </trkpt>
      <trkpt lat="51.229753788819" lon="4.457137099603">
        <ele>0</ele>
        <time>2020-06-13T19:46:37Z</time>
      </trkpt>
      <trkpt lat="51.229881026061" lon="4.456948423034">
        <ele>0</ele>
        <time>2020-06-13T19:46:57Z</time>
      </trkpt>
      <trkpt lat="51.229888988866" lon="4.456885391146">
        <ele>1</ele>
        <time>2020-06-13T19:47:01Z</time>
      </trkpt>
      <trkpt lat="51.22991463748" lon="4.456739546086">
        <ele>3.2</ele>
        <time>2020-06-13T19:47:14Z</time>
      </trkpt>
      <trkpt lat="51.230351753565" lon="4.456571153715">
        <ele>6.8</ele>
        <time>2020-06-13T19:47:45Z</time>
      </trkpt>
      <trkpt lat="51.230792725324" lon="4.456556401571">
        <ele>16</ele>
        <time>2020-06-13T19:48:16Z</time>
      </trkpt>
      <trkpt lat="51.230851230986" lon="4.456554306096">
        <ele>16</ele>
        <time>2020-06-13T19:48:21Z</time>
      </trkpt>
      <trkpt lat="51.23092214186" lon="4.456513653881">
        <ele>14.8</ele>
        <time>2020-06-13T19:48:27Z</time>
      </trkpt>
      <trkpt lat="51.231027669981" lon="4.456430253976">
        <ele>10.4</ele>
        <time>2020-06-13T19:48:41Z</time>
      </trkpt>
      <trkpt lat="51.231213245247" lon="4.456541649427">
        <ele>8.2</ele>
        <time>2020-06-13T19:48:58Z</time>
      </trkpt>
      <trkpt lat="51.231219615491" lon="4.456614069043">
        <ele>7.4</ele>
        <time>2020-06-13T19:49:02Z</time>
      </trkpt>
      <trkpt lat="51.231171335747" lon="4.456635610526">
        <ele>6.2</ele>
        <time>2020-06-13T19:49:09Z</time>
      </trkpt>
      <trkpt lat="51.231130934989" lon="4.456516419908">
        <ele>5.8</ele>
        <time>2020-06-13T19:49:25Z</time>
      </trkpt>
      <trkpt lat="51.231151638282" lon="4.456452466011">
        <ele>5.6</ele>
        <time>2020-06-13T19:49:31Z</time>
      </trkpt>
      <trkpt lat="51.2312959746" lon="4.456320031991">
        <ele>5.6</ele>
        <time>2020-06-13T19:49:43Z</time>
      </trkpt>
      <trkpt lat="51.231477191278" lon="4.456444419387">
        <ele>5</ele>
        <time>2020-06-13T19:50:03Z</time>
      </trkpt>
      <trkpt lat="51.231470653396" lon="4.456297568499">
        <ele>5.4</ele>
        <time>2020-06-13T19:50:38Z</time>
      </trkpt>
      <trkpt lat="51.231309720916" lon="4.456209810006">
        <ele>9.8</ele>
        <time>2020-06-13T19:51:07Z</time>
      </trkpt>
      <trkpt lat="51.231291196917" lon="4.456188436161">
        <ele>10</ele>
        <time>2020-06-13T19:51:09Z</time>
      </trkpt>
      <trkpt lat="51.231118362139" lon="4.455990958597">
        <ele>10</ele>
        <time>2020-06-13T19:51:28Z</time>
      </trkpt>
      <trkpt lat="51.230697087845" lon="4.455727347842">
        <ele>15</ele>
        <time>2020-06-13T19:52:01Z</time>
      </trkpt>
      <trkpt lat="51.230470022174" lon="4.455599942962">
        <ele>22</ele>
        <time>2020-06-13T19:52:26Z</time>
      </trkpt>
      <trkpt lat="51.230096859986" lon="4.455230049715">
        <ele>15</ele>
        <time>2020-06-13T19:52:57Z</time>
      </trkpt>
      <trkpt lat="51.230058722341" lon="4.455223428014">
        <ele>14.2</ele>
        <time>2020-06-13T19:53:00Z</time>
      </trkpt>
      <trkpt lat="51.229673825493" lon="4.455072637633">
        <ele>15.4</ele>
        <time>2020-06-13T19:53:34Z</time>
      </trkpt>
      <trkpt lat="51.229466373468" lon="4.454965097856">
        <ele>16.4</ele>
        <time>2020-06-13T19:53:51Z</time>
      </trkpt>
      <trkpt lat="51.229412980765" lon="4.454975323774">
        <ele>15.8</ele>
        <time>2020-06-13T19:53:59Z</time>
      </trkpt>
      <trkpt lat="51.229312397965" lon="4.4551391061">
        <ele>16.6</ele>
        <time>2020-06-13T19:54:18Z</time>
      </trkpt>
      <trkpt lat="51.229271075198" lon="4.455082695913">
        <ele>16</ele>
        <time>2020-06-13T19:54:22Z</time>
      </trkpt>
      <trkpt lat="51.22880990306" lon="4.454953782291">
        <ele>11.4</ele>
        <time>2020-06-13T19:54:57Z</time>
      </trkpt>
      <trkpt lat="51.228461635115" lon="4.454846493971">
        <ele>16</ele>
        <time>2020-06-13T19:55:31Z</time>
      </trkpt>
      <trkpt lat="51.228018400243" lon="4.45496895353">
        <ele>10.4</ele>
        <time>2020-06-13T19:56:03Z</time>
      </trkpt>
      <trkpt lat="51.22795327288" lon="4.454972725385">
        <ele>8.6</ele>
        <time>2020-06-13T19:56:14Z</time>
      </trkpt>
      <trkpt lat="51.227776582428" lon="4.454872477861">
        <ele>5</ele>
        <time>2020-06-13T19:56:34Z</time>
      </trkpt>
      <trkpt lat="51.227685806451" lon="4.454876249716">
        <ele>4.8</ele>
        <time>2020-06-13T19:56:44Z</time>
      </trkpt>
      <trkpt lat="51.227248858004" lon="4.454749850664">
        <ele>9.4</ele>
        <time>2020-06-13T19:57:21Z</time>
      </trkpt>
      <trkpt lat="51.227183898279" lon="4.454699559264">
        <ele>11.2</ele>
        <time>2020-06-13T19:57:27Z</time>
      </trkpt>
      <trkpt lat="51.226770754428" lon="4.454752868148">
        <ele>14.4</ele>
        <time>2020-06-13T19:57:59Z</time>
      </trkpt>
      <trkpt lat="51.226742675063" lon="4.454750437397">
        <ele>12.2</ele>
        <time>2020-06-13T19:58:02Z</time>
      </trkpt>
      <trkpt lat="51.226667824696" lon="4.454738954194">
        <ele>10.4</ele>
        <time>2020-06-13T19:58:16Z</time>
      </trkpt>
      <trkpt lat="51.226220985607" lon="4.454715736331">
        <ele>24.8</ele>
        <time>2020-06-13T19:58:53Z</time>
      </trkpt>
      <trkpt lat="51.225965672933" lon="4.454770386319">
        <ele>21</ele>
        <time>2020-06-13T19:59:24Z</time>
      </trkpt>
      <trkpt lat="51.225519336758" lon="4.454833082931">
        <ele>0</ele>
        <time>2020-06-13T20:00:02Z</time>
      </trkpt>
      <trkpt lat="51.225063612855" lon="4.454795783476">
        <ele>4</ele>
        <time>2020-06-13T20:00:55Z</time>
      </trkpt>
      <trkpt lat="51.225055314774" lon="4.454789161775">
        <ele>3.8</ele>
        <time>2020-06-13T20:00:56Z</time>
      </trkpt>
      <trkpt lat="51.224977195466" lon="4.454734511787">
        <ele>7.4</ele>
        <time>2020-06-13T20:01:03Z</time>
      </trkpt>
      <trkpt lat="51.224951379214" lon="4.454769799586">
        <ele>9.6</ele>
        <time>2020-06-13T20:01:07Z</time>
      </trkpt>
      <trkpt lat="51.224906955144" lon="4.455314790724">
        <ele>2</ele>
        <time>2020-06-13T20:01:36Z</time>
      </trkpt>
      <trkpt lat="51.224884407833" lon="4.455650150543">
        <ele>6.2</ele>
        <time>2020-06-13T20:01:57Z</time>
      </trkpt>
      <trkpt lat="51.224841995419" lon="4.455727264023">
        <ele>8.4</ele>
        <time>2020-06-13T20:02:02Z</time>
      </trkpt>
      <trkpt lat="51.224838055926" lon="4.455919125714">
        <ele>8.6</ele>
        <time>2020-06-13T20:02:28Z</time>
      </trkpt>
      <trkpt lat="51.224800756471" lon="4.456141832797">
        <ele>2.4</ele>
        <time>2020-06-13T20:02:44Z</time>
      </trkpt>
      <trkpt lat="51.224782903024" lon="4.456302765277">
        <ele>0</ele>
        <time>2020-06-13T20:02:51Z</time>
      </trkpt>
      <trkpt lat="51.224743340456" lon="4.456356493256">
        <ele>0</ele>
        <time>2020-06-13T20:02:54Z</time>
      </trkpt>
      <trkpt lat="51.224720793145" lon="4.456378956748">
        <ele>2.8</ele>
        <time>2020-06-13T20:02:57Z</time>
      </trkpt>
      <trkpt lat="51.224655665782" lon="4.456821101973">
        <ele>0.8</ele>
        <time>2020-06-13T20:03:20Z</time>
      </trkpt>
      <trkpt lat="51.224932017025" lon="4.457428622085">
        <ele>8.6</ele>
        <time>2020-06-13T20:03:54Z</time>
      </trkpt>
      <trkpt lat="51.224999910415" lon="4.457597601189">
        <ele>9.6</ele>
        <time>2020-06-13T20:04:05Z</time>
      </trkpt>
      <trkpt lat="51.225339628822" lon="4.458079895715">
        <ele>13.6</ele>
        <time>2020-06-13T20:04:43Z</time>
      </trkpt>
      <trkpt lat="51.225546997028" lon="4.458194727745">
        <ele>8.4</ele>
        <time>2020-06-13T20:05:27Z</time>
      </trkpt>
      <trkpt lat="51.225617153531" lon="4.458472252454">
        <ele>11.4</ele>
        <time>2020-06-13T20:05:45Z</time>
      </trkpt>
      <trkpt lat="51.225849248342" lon="4.458645757784">
        <ele>12.6</ele>
        <time>2020-06-13T20:06:15Z</time>
      </trkpt>
      <trkpt lat="51.225956620481" lon="4.458597897135">
        <ele>14.8</ele>
        <time>2020-06-13T20:06:27Z</time>
      </trkpt>
      <trkpt lat="51.2263590355" lon="4.458272176501">
        <ele>15.4</ele>
        <time>2020-06-13T20:07:08Z</time>
      </trkpt>
      <trkpt lat="51.226768407496" lon="4.457951149731">
        <ele>8.8</ele>
        <time>2020-06-13T20:07:44Z</time>
      </trkpt>
      <trkpt lat="51.227011650234" lon="4.457854422605">
        <ele>10.8</ele>
        <time>2020-06-13T20:08:11Z</time>
      </trkpt>
      <trkpt lat="51.227113322681" lon="4.457902786168">
        <ele>19.2</ele>
        <time>2020-06-13T20:08:29Z</time>
      </trkpt>
      <trkpt lat="51.22742018404" lon="4.457713606685">
        <ele>9.6</ele>
        <time>2020-06-13T20:09:08Z</time>
      </trkpt>
      <trkpt lat="51.227560664684" lon="4.457613526799">
        <ele>9.8</ele>
        <time>2020-06-13T20:09:24Z</time>
      </trkpt>
      <trkpt lat="51.227734840566" lon="4.457515626207">
        <ele>8.6</ele>
        <time>2020-06-13T20:09:49Z</time>
      </trkpt>
      <trkpt lat="51.228165251131" lon="4.457288309079">
        <ele>3.2</ele>
        <time>2020-06-13T20:10:35Z</time>
      </trkpt>
      <trkpt lat="51.228446463876" lon="4.457129304436">
        <ele>9.2</ele>
        <time>2020-06-13T20:11:12Z</time>
      </trkpt>
      <trkpt lat="51.228571689462" lon="4.457156210335">
        <ele>12.8</ele>
        <time>2020-06-13T20:11:26Z</time>
      </trkpt>
      <trkpt lat="51.228646875105" lon="4.457127544237">
        <ele>16.4</ele>
        <time>2020-06-13T20:11:38Z</time>
      </trkpt>
      <trkpt lat="51.229076950394" lon="4.456966695576">
        <ele>18.4</ele>
        <time>2020-06-13T20:12:31Z</time>
      </trkpt>
      <trkpt lat="51.229125313957" lon="4.45692947994">
        <ele>18.2</ele>
        <time>2020-06-13T20:12:35Z</time>
      </trkpt>
      <trkpt lat="51.229366964134" lon="4.45677022384">
        <ele>12</ele>
        <time>2020-06-13T20:12:58Z</time>
      </trkpt>
      <trkpt lat="51.229498392326" lon="4.456748598538">
        <ele>12.4</ele>
        <time>2020-06-13T20:13:11Z</time>
      </trkpt>
      <trkpt lat="51.229728894576" lon="4.456623708228">
        <ele>2.2</ele>
        <time>2020-06-13T20:14:50Z</time>
      </trkpt>
      <trkpt lat="51.229797709975" lon="4.456862257102">
        <ele>22.8</ele>
        <time>2020-06-13T20:15:14Z</time>
      </trkpt>
      <trkpt lat="51.2298291421" lon="4.457503304814">
        <ele>13.4</ele>
        <time>2020-06-13T20:15:44Z</time>
      </trkpt>
      <trkpt lat="51.229829812652" lon="4.457958441984">
        <ele>8.4</ele>
        <time>2020-06-13T20:16:09Z</time>
      </trkpt>
      <trkpt lat="51.229757979769" lon="4.457978307087">
        <ele>8</ele>
        <time>2020-06-13T20:16:16Z</time>
      </trkpt>
      <trkpt lat="51.229695534614" lon="4.457978307087">
        <ele>8.2</ele>
        <time>2020-06-13T20:16:21Z</time>
      </trkpt>
      <trkpt lat="51.229469390952" lon="4.458144939259">
        <ele>0</ele>
        <time>2020-06-13T20:17:00Z</time>
      </trkpt>
      <trkpt lat="51.229440724854" lon="4.458117781903">
        <ele>1</ele>
        <time>2020-06-13T20:17:15Z</time>
      </trkpt>
      <trkpt lat="51.229654211847" lon="4.458090540728">
        <ele>12.2</ele>
        <time>2020-06-13T20:17:52Z</time>
      </trkpt>
      <trkpt lat="51.229678854633" lon="4.458009823031">
        <ele>13.8</ele>
        <time>2020-06-13T20:17:57Z</time>
      </trkpt>
    </trkseg>
  </trk>
</gpx>